sensor_id;sensor_type;location;lat;lon;timestamp;P1;durP1;ratioP1;P2;durP2;ratioP2
66272;SDS011;58450;52.150;4.466;2022-12-20T00:01:23;6.78;;;3.47;;
66272;SDS011;58450;52.150;4.466;2022-12-20T00:03:53;7.00;;;3.38;;
66272;SDS011;58450;52.150;4.466;2022-12-20T00:06:24;7.60;;;3.47;;
66272;SDS011;58450;52.150;4.466;2022-12-20T00:08:52;6.07;;;3.60;;
66272;SDS011;58450;52.150;4.466;2022-12-20T00:11:22;7.63;;;4.00;;
66272;SDS011;58450;52.150;4.466;2022-12-20T00:13:50;6.85;;;3.60;;
66272;SDS011;58450;52.150;4.466;2022-12-20T00:16:19;6.10;;;3.30;;
66272;SDS011;58450;52.150;4.466;2022-12-20T00:18:51;8.90;;;3.58;;
66272;SDS011;58450;52.150;4.466;2022-12-20T00:21:21;6.20;;;3.22;;
66272;SDS011;58450;52.150;4.466;2022-12-20T00:23:49;7.80;;;3.70;;
66272;SDS011;58450;52.150;4.466;2022-12-20T00:26:19;6.90;;;3.42;;
66272;SDS011;58450;52.150;4.466;2022-12-20T00:28:48;6.97;;;3.33;;
66272;SDS011;58450;52.150;4.466;2022-12-20T00:31:17;7.80;;;3.55;;
66272;SDS011;58450;52.150;4.466;2022-12-20T00:33:49;7.22;;;3.50;;
66272;SDS011;58450;52.150;4.466;2022-12-20T00:36:20;5.80;;;3.40;;
66272;SDS011;58450;52.150;4.466;2022-12-20T00:38:50;6.63;;;3.72;;
66272;SDS011;58450;52.150;4.466;2022-12-20T00:41:20;6.15;;;3.30;;
66272;SDS011;58450;52.150;4.466;2022-12-20T00:43:50;7.95;;;3.92;;
66272;SDS011;58450;52.150;4.466;2022-12-20T00:46:18;11.65;;;3.65;;
66272;SDS011;58450;52.150;4.466;2022-12-20T00:48:49;6.13;;;3.30;;
66272;SDS011;58450;52.150;4.466;2022-12-20T00:51:18;8.68;;;4.22;;
66272;SDS011;58450;52.150;4.466;2022-12-20T00:53:48;6.93;;;3.35;;
66272;SDS011;58450;52.150;4.466;2022-12-20T00:56:16;7.30;;;3.55;;
66272;SDS011;58450;52.150;4.466;2022-12-20T00:58:45;8.98;;;3.60;;
66272;SDS011;58450;52.150;4.466;2022-12-20T01:01:15;7.63;;;3.78;;
66272;SDS011;58450;52.150;4.466;2022-12-20T01:03:48;6.93;;;3.58;;
66272;SDS011;58450;52.150;4.466;2022-12-20T01:06:18;7.32;;;3.70;;
66272;SDS011;58450;52.150;4.466;2022-12-20T01:08:46;9.40;;;4.40;;
66272;SDS011;58450;52.150;4.466;2022-12-20T01:11:15;6.53;;;3.70;;
66272;SDS011;58450;52.150;4.466;2022-12-20T01:13:45;6.53;;;3.47;;
66272;SDS011;58450;52.150;4.466;2022-12-20T01:16:17;7.05;;;3.78;;
66272;SDS011;58450;52.150;4.466;2022-12-20T01:18:47;4.93;;;3.30;;
66272;SDS011;58450;52.150;4.466;2022-12-20T01:21:17;6.43;;;3.60;;
66272;SDS011;58450;52.150;4.466;2022-12-20T01:23:47;6.38;;;3.42;;
66272;SDS011;58450;52.150;4.466;2022-12-20T01:26:16;5.55;;;3.33;;
66272;SDS011;58450;52.150;4.466;2022-12-20T01:28:48;6.80;;;3.40;;
66272;SDS011;58450;52.150;4.466;2022-12-20T01:31:20;8.45;;;4.00;;
66272;SDS011;58450;52.150;4.466;2022-12-20T01:33:49;11.23;;;4.15;;
66272;SDS011;58450;52.150;4.466;2022-12-20T01:36:19;8.57;;;3.72;;
66272;SDS011;58450;52.150;4.466;2022-12-20T01:38:49;7.93;;;3.55;;
66272;SDS011;58450;52.150;4.466;2022-12-20T01:41:21;7.25;;;3.60;;
66272;SDS011;58450;52.150;4.466;2022-12-20T01:43:50;7.72;;;3.85;;
66272;SDS011;58450;52.150;4.466;2022-12-20T01:46:21;6.28;;;3.47;;
66272;SDS011;58450;52.150;4.466;2022-12-20T01:48:53;6.38;;;3.30;;
66272;SDS011;58450;52.150;4.466;2022-12-20T01:51:27;5.38;;;3.20;;
66272;SDS011;58450;52.150;4.466;2022-12-20T01:54:00;7.18;;;3.40;;
66272;SDS011;58450;52.150;4.466;2022-12-20T01:56:33;5.80;;;3.50;;
66272;SDS011;58450;52.150;4.466;2022-12-20T01:59:05;5.07;;;3.20;;
66272;SDS011;58450;52.150;4.466;2022-12-20T02:01:34;5.63;;;3.15;;
66272;SDS011;58450;52.150;4.466;2022-12-20T02:04:03;6.40;;;3.58;;
66272;SDS011;58450;52.150;4.466;2022-12-20T02:06:30;5.72;;;3.33;;
66272;SDS011;58450;52.150;4.466;2022-12-20T02:08:58;7.20;;;3.17;;
66272;SDS011;58450;52.150;4.466;2022-12-20T02:17:18;7.47;;;3.45;;
66272;SDS011;58450;52.150;4.466;2022-12-20T02:23:15;9.98;;;3.70;;
66272;SDS011;58450;52.150;4.466;2022-12-20T02:26:32;6.80;;;3.95;;
66272;SDS011;58450;52.150;4.466;2022-12-20T02:29:32;8.50;;;3.95;;
66272;SDS011;58450;52.150;4.466;2022-12-20T02:32:06;7.53;;;4.20;;
66272;SDS011;58450;52.150;4.466;2022-12-20T02:34:42;9.05;;;4.05;;
66272;SDS011;58450;52.150;4.466;2022-12-20T02:37:10;6.50;;;4.00;;
66272;SDS011;58450;52.150;4.466;2022-12-20T02:39:39;9.95;;;4.32;;
66272;SDS011;58450;52.150;4.466;2022-12-20T02:42:10;8.52;;;4.20;;
66272;SDS011;58450;52.150;4.466;2022-12-20T02:44:43;7.18;;;4.18;;
66272;SDS011;58450;52.150;4.466;2022-12-20T02:47:49;8.52;;;4.38;;
66272;SDS011;58450;52.150;4.466;2022-12-20T02:50:22;6.32;;;4.10;;
66272;SDS011;58450;52.150;4.466;2022-12-20T02:52:56;8.30;;;4.45;;
66272;SDS011;58450;52.150;4.466;2022-12-20T02:55:28;8.25;;;4.30;;
66272;SDS011;58450;52.150;4.466;2022-12-20T02:58:09;8.27;;;4.20;;
66272;SDS011;58450;52.150;4.466;2022-12-20T03:00:44;7.90;;;4.05;;
66272;SDS011;58450;52.150;4.466;2022-12-20T03:03:18;8.52;;;4.00;;
66272;SDS011;58450;52.150;4.466;2022-12-20T03:05:50;9.38;;;4.18;;
66272;SDS011;58450;52.150;4.466;2022-12-20T03:08:20;8.50;;;4.30;;
66272;SDS011;58450;52.150;4.466;2022-12-20T03:10:50;9.40;;;4.18;;
66272;SDS011;58450;52.150;4.466;2022-12-20T03:13:20;8.85;;;4.85;;
66272;SDS011;58450;52.150;4.466;2022-12-20T03:15:50;7.63;;;4.47;;
66272;SDS011;58450;52.150;4.466;2022-12-20T03:18:19;6.90;;;3.88;;
66272;SDS011;58450;52.150;4.466;2022-12-20T03:20:47;8.02;;;4.20;;
66272;SDS011;58450;52.150;4.466;2022-12-20T03:23:14;8.75;;;4.10;;
66272;SDS011;58450;52.150;4.466;2022-12-20T03:25:42;6.70;;;3.70;;
66272;SDS011;58450;52.150;4.466;2022-12-20T03:28:09;6.63;;;3.67;;
66272;SDS011;58450;52.150;4.466;2022-12-20T03:30:37;11.85;;;3.75;;
66272;SDS011;58450;52.150;4.466;2022-12-20T03:33:05;7.35;;;3.88;;
66272;SDS011;58450;52.150;4.466;2022-12-20T03:35:34;7.80;;;3.70;;
66272;SDS011;58450;52.150;4.466;2022-12-20T03:38:01;7.80;;;3.35;;
66272;SDS011;58450;52.150;4.466;2022-12-20T03:40:29;5.38;;;3.28;;
66272;SDS011;58450;52.150;4.466;2022-12-20T03:42:56;6.15;;;3.60;;
66272;SDS011;58450;52.150;4.466;2022-12-20T03:45:24;6.70;;;3.80;;
66272;SDS011;58450;52.150;4.466;2022-12-20T03:47:52;5.90;;;3.22;;
66272;SDS011;58450;52.150;4.466;2022-12-20T03:50:19;9.57;;;3.88;;
66272;SDS011;58450;52.150;4.466;2022-12-20T03:52:48;6.22;;;3.30;;
66272;SDS011;58450;52.150;4.466;2022-12-20T03:55:16;6.25;;;3.30;;
66272;SDS011;58450;52.150;4.466;2022-12-20T03:57:43;5.72;;;3.15;;
66272;SDS011;58450;52.150;4.466;2022-12-20T04:00:11;7.07;;;3.40;;
66272;SDS011;58450;52.150;4.466;2022-12-20T04:02:41;6.95;;;3.60;;
66272;SDS011;58450;52.150;4.466;2022-12-20T04:05:08;6.07;;;3.55;;
66272;SDS011;58450;52.150;4.466;2022-12-20T04:07:36;6.28;;;3.33;;
66272;SDS011;58450;52.150;4.466;2022-12-20T04:10:06;6.70;;;3.40;;
66272;SDS011;58450;52.150;4.466;2022-12-20T04:12:34;5.50;;;3.20;;
66272;SDS011;58450;52.150;4.466;2022-12-20T04:15:02;6.28;;;3.60;;
66272;SDS011;58450;52.150;4.466;2022-12-20T04:17:31;4.70;;;2.97;;
66272;SDS011;58450;52.150;4.466;2022-12-20T04:19:58;6.65;;;3.55;;
66272;SDS011;58450;52.150;4.466;2022-12-20T04:22:43;7.65;;;3.63;;
66272;SDS011;58450;52.150;4.466;2022-12-20T04:25:12;6.72;;;3.60;;
66272;SDS011;58450;52.150;4.466;2022-12-20T04:27:41;5.95;;;3.80;;
66272;SDS011;58450;52.150;4.466;2022-12-20T04:30:09;8.05;;;3.70;;
66272;SDS011;58450;52.150;4.466;2022-12-20T04:32:38;7.72;;;4.10;;
66272;SDS011;58450;52.150;4.466;2022-12-20T04:35:06;8.25;;;4.10;;
66272;SDS011;58450;52.150;4.466;2022-12-20T04:37:34;7.30;;;4.38;;
66272;SDS011;58450;52.150;4.466;2022-12-20T04:40:02;8.60;;;4.10;;
66272;SDS011;58450;52.150;4.466;2022-12-20T04:42:33;8.00;;;4.70;;
66272;SDS011;58450;52.150;4.466;2022-12-20T04:45:00;8.35;;;4.60;;
66272;SDS011;58450;52.150;4.466;2022-12-20T04:47:29;8.82;;;4.32;;
66272;SDS011;58450;52.150;4.466;2022-12-20T04:49:56;10.68;;;5.10;;
66272;SDS011;58450;52.150;4.466;2022-12-20T04:52:24;9.85;;;4.90;;
66272;SDS011;58450;52.150;4.466;2022-12-20T04:55:09;8.93;;;4.55;;
66272;SDS011;58450;52.150;4.466;2022-12-20T04:57:37;7.82;;;4.72;;
66272;SDS011;58450;52.150;4.466;2022-12-20T05:00:05;8.15;;;4.70;;
66272;SDS011;58450;52.150;4.466;2022-12-20T05:02:34;9.25;;;5.18;;
66272;SDS011;58450;52.150;4.466;2022-12-20T05:05:02;7.80;;;4.13;;
66272;SDS011;58450;52.150;4.466;2022-12-20T05:07:30;8.27;;;4.75;;
66272;SDS011;58450;52.150;4.466;2022-12-20T05:09:58;6.88;;;4.18;;
66272;SDS011;58450;52.150;4.466;2022-12-20T05:12:25;7.05;;;4.25;;
66272;SDS011;58450;52.150;4.466;2022-12-20T05:14:54;8.63;;;4.35;;
66272;SDS011;58450;52.150;4.466;2022-12-20T05:17:22;9.07;;;4.55;;
66272;SDS011;58450;52.150;4.466;2022-12-20T05:19:50;8.25;;;4.00;;
66272;SDS011;58450;52.150;4.466;2022-12-20T05:22:17;9.57;;;4.72;;
66272;SDS011;58450;52.150;4.466;2022-12-20T05:25:02;8.20;;;4.18;;
66272;SDS011;58450;52.150;4.466;2022-12-20T05:27:48;7.00;;;4.05;;
66272;SDS011;58450;52.150;4.466;2022-12-20T05:30:17;7.20;;;3.80;;
66272;SDS011;58450;52.150;4.466;2022-12-20T05:32:44;7.88;;;4.30;;
66272;SDS011;58450;52.150;4.466;2022-12-20T05:35:12;7.47;;;4.40;;
66272;SDS011;58450;52.150;4.466;2022-12-20T05:37:40;8.80;;;4.22;;
66272;SDS011;58450;52.150;4.466;2022-12-20T05:40:08;8.18;;;3.70;;
66272;SDS011;58450;52.150;4.466;2022-12-20T05:42:36;7.22;;;4.05;;
66272;SDS011;58450;52.150;4.466;2022-12-20T05:45:04;7.57;;;4.25;;
66272;SDS011;58450;52.150;4.466;2022-12-20T05:47:34;6.45;;;3.63;;
66272;SDS011;58450;52.150;4.466;2022-12-20T05:50:02;7.72;;;3.72;;
66272;SDS011;58450;52.150;4.466;2022-12-20T05:52:30;7.78;;;3.72;;
66272;SDS011;58450;52.150;4.466;2022-12-20T05:54:58;8.07;;;3.92;;
66272;SDS011;58450;52.150;4.466;2022-12-20T05:57:25;6.53;;;3.42;;
66272;SDS011;58450;52.150;4.466;2022-12-20T05:59:53;6.85;;;3.45;;
66272;SDS011;58450;52.150;4.466;2022-12-20T06:02:21;6.28;;;3.47;;
66272;SDS011;58450;52.150;4.466;2022-12-20T06:04:49;5.88;;;3.63;;
66272;SDS011;58450;52.150;4.466;2022-12-20T06:07:17;5.65;;;3.30;;
66272;SDS011;58450;52.150;4.466;2022-12-20T06:09:45;6.32;;;3.40;;
66272;SDS011;58450;52.150;4.466;2022-12-20T06:12:12;6.70;;;3.78;;
66272;SDS011;58450;52.150;4.466;2022-12-20T06:14:40;6.38;;;3.53;;
66272;SDS011;58450;52.150;4.466;2022-12-20T06:17:07;6.97;;;3.70;;
66272;SDS011;58450;52.150;4.466;2022-12-20T06:19:37;7.65;;;3.53;;
66272;SDS011;58450;52.150;4.466;2022-12-20T06:22:07;6.22;;;3.40;;
66272;SDS011;58450;52.150;4.466;2022-12-20T06:24:35;6.80;;;3.55;;
66272;SDS011;58450;52.150;4.466;2022-12-20T06:27:04;7.25;;;3.38;;
66272;SDS011;58450;52.150;4.466;2022-12-20T06:29:32;6.45;;;3.33;;
66272;SDS011;58450;52.150;4.466;2022-12-20T06:32:02;6.47;;;3.13;;
66272;SDS011;58450;52.150;4.466;2022-12-20T06:34:30;7.28;;;3.22;;
66272;SDS011;58450;52.150;4.466;2022-12-20T06:36:59;6.22;;;3.35;;
66272;SDS011;58450;52.150;4.466;2022-12-20T06:39:28;5.30;;;2.97;;
66272;SDS011;58450;52.150;4.466;2022-12-20T06:41:55;7.25;;;3.40;;
66272;SDS011;58450;52.150;4.466;2022-12-20T06:44:23;4.97;;;3.10;;
66272;SDS011;58450;52.150;4.466;2022-12-20T06:46:51;6.88;;;3.13;;
66272;SDS011;58450;52.150;4.466;2022-12-20T06:49:19;7.50;;;3.42;;
66272;SDS011;58450;52.150;4.466;2022-12-20T06:51:47;6.28;;;3.00;;
66272;SDS011;58450;52.150;4.466;2022-12-20T06:54:15;7.05;;;3.22;;
66272;SDS011;58450;52.150;4.466;2022-12-20T06:56:44;6.28;;;3.00;;
66272;SDS011;58450;52.150;4.466;2022-12-20T06:59:11;5.20;;;2.88;;
66272;SDS011;58450;52.150;4.466;2022-12-20T07:01:40;5.55;;;2.70;;
66272;SDS011;58450;52.150;4.466;2022-12-20T07:04:07;7.85;;;3.20;;
66272;SDS011;58450;52.150;4.466;2022-12-20T07:06:35;5.57;;;2.90;;
66272;SDS011;58450;52.150;4.466;2022-12-20T07:09:03;4.55;;;2.70;;
66272;SDS011;58450;52.150;4.466;2022-12-20T07:11:30;5.13;;;2.80;;
66272;SDS011;58450;52.150;4.466;2022-12-20T07:13:59;5.68;;;3.08;;
66272;SDS011;58450;52.150;4.466;2022-12-20T07:16:27;7.55;;;3.15;;
66272;SDS011;58450;52.150;4.466;2022-12-20T07:18:56;7.65;;;3.13;;
66272;SDS011;58450;52.150;4.466;2022-12-20T07:21:24;6.70;;;2.80;;
66272;SDS011;58450;52.150;4.466;2022-12-20T07:23:53;6.95;;;3.50;;
66272;SDS011;58450;52.150;4.466;2022-12-20T07:26:21;6.35;;;3.03;;
66272;SDS011;58450;52.150;4.466;2022-12-20T07:28:49;6.20;;;3.15;;
66272;SDS011;58450;52.150;4.466;2022-12-20T07:31:18;5.75;;;3.30;;
66272;SDS011;58450;52.150;4.466;2022-12-20T07:33:46;6.68;;;3.35;;
66272;SDS011;58450;52.150;4.466;2022-12-20T07:36:14;7.93;;;3.53;;
66272;SDS011;58450;52.150;4.466;2022-12-20T07:38:41;4.75;;;3.03;;
66272;SDS011;58450;52.150;4.466;2022-12-20T07:41:10;6.00;;;2.78;;
66272;SDS011;58450;52.150;4.466;2022-12-20T07:43:40;7.38;;;3.22;;
66272;SDS011;58450;52.150;4.466;2022-12-20T07:46:08;9.32;;;2.95;;
66272;SDS011;58450;52.150;4.466;2022-12-20T07:48:40;5.72;;;3.03;;
66272;SDS011;58450;52.150;4.466;2022-12-20T07:51:11;6.07;;;2.72;;
66272;SDS011;58450;52.150;4.466;2022-12-20T07:53:46;8.00;;;3.10;;
66272;SDS011;58450;52.150;4.466;2022-12-20T07:56:19;8.98;;;4.50;;
66272;SDS011;58450;52.150;4.466;2022-12-20T07:58:49;7.70;;;4.53;;
66272;SDS011;58450;52.150;4.466;2022-12-20T08:01:23;4.88;;;3.00;;
66272;SDS011;58450;52.150;4.466;2022-12-20T08:03:55;5.28;;;3.20;;
66272;SDS011;58450;52.150;4.466;2022-12-20T08:06:30;7.03;;;3.08;;
66272;SDS011;58450;52.150;4.466;2022-12-20T08:09:00;8.27;;;3.58;;
66272;SDS011;58450;52.150;4.466;2022-12-20T08:11:32;6.20;;;3.40;;
66272;SDS011;58450;52.150;4.466;2022-12-20T08:14:03;8.35;;;3.75;;
66272;SDS011;58450;52.150;4.466;2022-12-20T08:16:33;8.48;;;3.75;;
66272;SDS011;58450;52.150;4.466;2022-12-20T08:19:03;8.65;;;3.20;;
66272;SDS011;58450;52.150;4.466;2022-12-20T08:21:30;7.75;;;3.30;;
66272;SDS011;58450;52.150;4.466;2022-12-20T08:23:58;6.40;;;3.55;;
66272;SDS011;58450;52.150;4.466;2022-12-20T08:26:26;11.57;;;3.42;;
66272;SDS011;58450;52.150;4.466;2022-12-20T08:28:54;9.43;;;3.78;;
66272;SDS011;58450;52.150;4.466;2022-12-20T08:31:22;8.00;;;3.60;;
66272;SDS011;58450;52.150;4.466;2022-12-20T08:33:52;7.05;;;3.58;;
66272;SDS011;58450;52.150;4.466;2022-12-20T08:36:22;7.32;;;3.40;;
66272;SDS011;58450;52.150;4.466;2022-12-20T08:38:50;6.15;;;3.50;;
66272;SDS011;58450;52.150;4.466;2022-12-20T08:41:18;6.18;;;3.50;;
66272;SDS011;58450;52.150;4.466;2022-12-20T08:43:45;7.93;;;3.55;;
66272;SDS011;58450;52.150;4.466;2022-12-20T08:46:13;6.45;;;3.28;;
66272;SDS011;58450;52.150;4.466;2022-12-20T08:48:41;6.40;;;3.30;;
66272;SDS011;58450;52.150;4.466;2022-12-20T08:51:09;6.45;;;3.15;;
66272;SDS011;58450;52.150;4.466;2022-12-20T08:53:39;7.25;;;3.33;;
66272;SDS011;58450;52.150;4.466;2022-12-20T08:56:07;6.22;;;3.40;;
66272;SDS011;58450;52.150;4.466;2022-12-20T08:58:37;6.93;;;3.17;;
66272;SDS011;58450;52.150;4.466;2022-12-20T09:01:07;6.50;;;3.45;;
66272;SDS011;58450;52.150;4.466;2022-12-20T09:03:38;6.70;;;3.38;;
66272;SDS011;58450;52.150;4.466;2022-12-20T09:06:08;5.75;;;3.05;;
66272;SDS011;58450;52.150;4.466;2022-12-20T09:08:39;7.03;;;3.50;;
66272;SDS011;58450;52.150;4.466;2022-12-20T09:11:09;7.15;;;3.63;;
66272;SDS011;58450;52.150;4.466;2022-12-20T09:13:40;7.00;;;3.47;;
66272;SDS011;58450;52.150;4.466;2022-12-20T09:16:11;9.20;;;4.00;;
66272;SDS011;58450;52.150;4.466;2022-12-20T09:18:41;7.65;;;3.30;;
66272;SDS011;58450;52.150;4.466;2022-12-20T09:21:10;7.32;;;3.60;;
66272;SDS011;58450;52.150;4.466;2022-12-20T09:23:38;6.03;;;3.20;;
66272;SDS011;58450;52.150;4.466;2022-12-20T09:26:10;21.05;;;5.93;;
66272;SDS011;58450;52.150;4.466;2022-12-20T09:28:41;7.95;;;3.80;;
66272;SDS011;58450;52.150;4.466;2022-12-20T09:31:11;7.00;;;3.30;;
66272;SDS011;58450;52.150;4.466;2022-12-20T09:33:41;8.02;;;3.50;;
66272;SDS011;58450;52.150;4.466;2022-12-20T09:36:10;7.25;;;3.67;;
66272;SDS011;58450;52.150;4.466;2022-12-20T09:38:41;7.97;;;3.45;;
66272;SDS011;58450;52.150;4.466;2022-12-20T09:41:15;6.95;;;3.40;;
66272;SDS011;58450;52.150;4.466;2022-12-20T09:43:54;8.18;;;3.42;;
66272;SDS011;58450;52.150;4.466;2022-12-20T09:46:23;7.82;;;3.95;;
66272;SDS011;58450;52.150;4.466;2022-12-20T09:48:53;6.85;;;3.67;;
66272;SDS011;58450;52.150;4.466;2022-12-20T09:51:27;6.25;;;3.13;;
66272;SDS011;58450;52.150;4.466;2022-12-20T09:54:14;9.02;;;3.85;;
66272;SDS011;58450;52.150;4.466;2022-12-20T09:56:57;6.32;;;3.38;;
66272;SDS011;58450;52.150;4.466;2022-12-20T09:59:36;7.00;;;3.60;;
66272;SDS011;58450;52.150;4.466;2022-12-20T10:02:08;7.68;;;3.50;;
66272;SDS011;58450;52.150;4.466;2022-12-20T10:04:42;8.57;;;3.58;;
66272;SDS011;58450;52.150;4.466;2022-12-20T10:07:15;8.90;;;3.80;;
66272;SDS011;58450;52.150;4.466;2022-12-20T10:10:04;8.15;;;4.07;;
66272;SDS011;58450;52.150;4.466;2022-12-20T10:12:58;8.63;;;4.38;;
66272;SDS011;58450;52.150;4.466;2022-12-20T10:18:20;10.45;;;3.67;;
66272;SDS011;58450;52.150;4.466;2022-12-20T10:21:10;9.38;;;3.90;;
66272;SDS011;58450;52.150;4.466;2022-12-20T10:23:54;8.60;;;3.78;;
66272;SDS011;58450;52.150;4.466;2022-12-20T10:26:30;11.85;;;4.13;;
66272;SDS011;58450;52.150;4.466;2022-12-20T10:29:00;10.70;;;4.07;;
66272;SDS011;58450;52.150;4.466;2022-12-20T10:31:28;9.15;;;3.67;;
66272;SDS011;58450;52.150;4.466;2022-12-20T10:33:55;9.32;;;3.80;;
66272;SDS011;58450;52.150;4.466;2022-12-20T10:36:24;9.23;;;3.85;;
66272;SDS011;58450;52.150;4.466;2022-12-20T10:38:55;7.28;;;3.42;;
66272;SDS011;58450;52.150;4.466;2022-12-20T10:41:26;8.02;;;3.65;;
66272;SDS011;58450;52.150;4.466;2022-12-20T10:43:59;11.90;;;5.07;;
66272;SDS011;58450;52.150;4.466;2022-12-20T10:46:33;13.75;;;8.07;;
66272;SDS011;58450;52.150;4.466;2022-12-20T10:49:20;23.48;;;14.75;;
66272;SDS011;58450;52.150;4.466;2022-12-20T10:51:59;38.38;;;17.25;;
66272;SDS011;58450;52.150;4.466;2022-12-20T10:54:37;9.25;;;4.32;;
66272;SDS011;58450;52.150;4.466;2022-12-20T10:57:13;8.05;;;4.30;;
66272;SDS011;58450;52.150;4.466;2022-12-20T10:59:48;10.20;;;4.20;;
66272;SDS011;58450;52.150;4.466;2022-12-20T11:02:22;7.10;;;4.00;;
66272;SDS011;58450;52.150;4.466;2022-12-20T11:04:57;9.63;;;4.90;;
66272;SDS011;58450;52.150;4.466;2022-12-20T11:07:29;7.93;;;4.63;;
66272;SDS011;58450;52.150;4.466;2022-12-20T11:10:01;8.00;;;4.38;;
66272;SDS011;58450;52.150;4.466;2022-12-20T11:12:52;10.82;;;4.70;;
66272;SDS011;58450;52.150;4.466;2022-12-20T11:15:22;8.52;;;4.47;;
66272;SDS011;58450;52.150;4.466;2022-12-20T11:17:54;10.65;;;5.10;;
66272;SDS011;58450;52.150;4.466;2022-12-20T11:20:32;8.85;;;5.07;;
66272;SDS011;58450;52.150;4.466;2022-12-20T11:23:12;8.95;;;4.78;;
66272;SDS011;58450;52.150;4.466;2022-12-20T11:25:59;9.52;;;5.13;;
66272;SDS011;58450;52.150;4.466;2022-12-20T11:28:57;9.90;;;5.95;;
66272;SDS011;58450;52.150;4.466;2022-12-20T11:31:52;8.32;;;4.95;;
66272;SDS011;58450;52.150;4.466;2022-12-20T11:34:36;8.95;;;4.95;;
66272;SDS011;58450;52.150;4.466;2022-12-20T11:37:20;10.77;;;5.05;;
66272;SDS011;58450;52.150;4.466;2022-12-20T11:40:02;9.02;;;5.40;;
66272;SDS011;58450;52.150;4.466;2022-12-20T11:42:48;11.77;;;5.20;;
66272;SDS011;58450;52.150;4.466;2022-12-20T11:45:36;11.25;;;5.20;;
66272;SDS011;58450;52.150;4.466;2022-12-20T11:51:34;7.97;;;5.05;;
66272;SDS011;58450;52.150;4.466;2022-12-20T11:54:11;10.57;;;5.13;;
66272;SDS011;58450;52.150;4.466;2022-12-20T11:56:49;11.77;;;5.65;;
66272;SDS011;58450;52.150;4.466;2022-12-20T11:59:23;9.73;;;5.63;;
66272;SDS011;58450;52.150;4.466;2022-12-20T12:02:04;12.32;;;5.82;;
66272;SDS011;58450;52.150;4.466;2022-12-20T12:04:40;9.45;;;5.65;;
66272;SDS011;58450;52.150;4.466;2022-12-20T12:07:17;8.32;;;5.50;;
66272;SDS011;58450;52.150;4.466;2022-12-20T12:09:54;9.30;;;5.32;;
66272;SDS011;58450;52.150;4.466;2022-12-20T12:12:28;11.27;;;5.60;;
66272;SDS011;58450;52.150;4.466;2022-12-20T12:15:01;10.80;;;6.10;;
66272;SDS011;58450;52.150;4.466;2022-12-20T12:17:43;10.05;;;5.68;;
66272;SDS011;58450;52.150;4.466;2022-12-20T12:20:22;9.35;;;5.95;;
66272;SDS011;58450;52.150;4.466;2022-12-20T12:23:00;8.80;;;5.75;;
66272;SDS011;58450;52.150;4.466;2022-12-20T12:25:38;11.75;;;6.45;;
66272;SDS011;58450;52.150;4.466;2022-12-20T12:28:08;14.57;;;6.10;;
66272;SDS011;58450;52.150;4.466;2022-12-20T12:30:41;9.43;;;6.22;;
66272;SDS011;58450;52.150;4.466;2022-12-20T12:33:19;9.07;;;5.57;;
66272;SDS011;58450;52.150;4.466;2022-12-20T12:39:04;9.23;;;6.13;;
66272;SDS011;58450;52.150;4.466;2022-12-20T12:42:14;11.43;;;6.63;;
66272;SDS011;58450;52.150;4.466;2022-12-20T12:45:18;10.82;;;6.50;;
66272;SDS011;58450;52.150;4.466;2022-12-20T12:47:53;9.65;;;5.85;;
66272;SDS011;58450;52.150;4.466;2022-12-20T12:50:30;10.23;;;6.65;;
66272;SDS011;58450;52.150;4.466;2022-12-20T12:53:05;13.43;;;7.50;;
66272;SDS011;58450;52.150;4.466;2022-12-20T12:55:41;12.05;;;6.72;;
66272;SDS011;58450;52.150;4.466;2022-12-20T12:58:29;9.60;;;6.47;;
66272;SDS011;58450;52.150;4.466;2022-12-20T13:01:00;10.20;;;6.13;;
66272;SDS011;58450;52.150;4.466;2022-12-20T13:06:42;9.63;;;6.50;;
66272;SDS011;58450;52.150;4.466;2022-12-20T13:09:40;11.30;;;7.10;;
66272;SDS011;58450;52.150;4.466;2022-12-20T13:18:22;11.20;;;6.63;;
66272;SDS011;58450;52.150;4.466;2022-12-20T13:29:59;9.38;;;6.80;;
66272;SDS011;58450;52.150;4.466;2022-12-20T13:36:01;12.38;;;7.50;;
66272;SDS011;58450;52.150;4.466;2022-12-20T13:41:34;11.95;;;7.68;;
66272;SDS011;58450;52.150;4.466;2022-12-20T13:47:13;12.25;;;7.00;;
66272;SDS011;58450;52.150;4.466;2022-12-20T13:49:58;10.13;;;7.57;;
66272;SDS011;58450;52.150;4.466;2022-12-20T13:52:28;13.80;;;7.88;;
66272;SDS011;58450;52.150;4.466;2022-12-20T13:55:00;12.02;;;7.90;;
66272;SDS011;58450;52.150;4.466;2022-12-20T13:57:43;11.60;;;8.13;;
66272;SDS011;58450;52.150;4.466;2022-12-20T14:00:14;11.32;;;8.75;;
66272;SDS011;58450;52.150;4.466;2022-12-20T14:02:44;11.95;;;8.43;;
66272;SDS011;58450;52.150;4.466;2022-12-20T14:05:14;13.27;;;9.48;;
66272;SDS011;58450;52.150;4.466;2022-12-20T14:07:50;15.23;;;9.88;;
66272;SDS011;58450;52.150;4.466;2022-12-20T14:10:26;14.38;;;9.82;;
66272;SDS011;58450;52.150;4.466;2022-12-20T14:12:57;14.70;;;9.63;;
66272;SDS011;58450;52.150;4.466;2022-12-20T14:15:26;13.20;;;9.35;;
66272;SDS011;58450;52.150;4.466;2022-12-20T14:18:03;16.65;;;10.07;;
66272;SDS011;58450;52.150;4.466;2022-12-20T14:20:32;13.13;;;10.23;;
66272;SDS011;58450;52.150;4.466;2022-12-20T14:23:04;15.57;;;10.27;;
66272;SDS011;58450;52.150;4.466;2022-12-20T14:25:41;12.32;;;10.00;;
66272;SDS011;58450;52.150;4.466;2022-12-20T14:28:17;15.13;;;10.75;;
66272;SDS011;58450;52.150;4.466;2022-12-20T14:30:58;15.48;;;10.60;;
66272;SDS011;58450;52.150;4.466;2022-12-20T14:33:29;14.60;;;10.25;;
66272;SDS011;58450;52.150;4.466;2022-12-20T14:36:08;13.70;;;10.07;;
66272;SDS011;58450;52.150;4.466;2022-12-20T14:38:44;13.95;;;10.32;;
66272;SDS011;58450;52.150;4.466;2022-12-20T14:41:31;17.73;;;11.38;;
66272;SDS011;58450;52.150;4.466;2022-12-20T14:44:12;17.30;;;11.43;;
66272;SDS011;58450;52.150;4.466;2022-12-20T14:46:46;16.20;;;11.02;;
66272;SDS011;58450;52.150;4.466;2022-12-20T14:49:17;20.92;;;13.35;;
66272;SDS011;58450;52.150;4.466;2022-12-20T14:51:50;18.92;;;13.65;;
66272;SDS011;58450;52.150;4.466;2022-12-20T14:54:32;18.77;;;14.05;;
66272;SDS011;58450;52.150;4.466;2022-12-20T14:57:02;20.85;;;15.35;;
66272;SDS011;58450;52.150;4.466;2022-12-20T14:59:38;20.95;;;15.15;;
66272;SDS011;58450;52.150;4.466;2022-12-20T15:05:05;21.17;;;15.88;;
66272;SDS011;58450;52.150;4.466;2022-12-20T15:08:19;22.85;;;16.98;;
66272;SDS011;58450;52.150;4.466;2022-12-20T15:10:52;21.38;;;15.80;;
66272;SDS011;58450;52.150;4.466;2022-12-20T15:13:31;22.45;;;15.88;;
66272;SDS011;58450;52.150;4.466;2022-12-20T15:16:03;21.48;;;16.35;;
66272;SDS011;58450;52.150;4.466;2022-12-20T15:18:39;20.98;;;16.15;;
66272;SDS011;58450;52.150;4.466;2022-12-20T15:21:10;26.73;;;16.67;;
66272;SDS011;58450;52.150;4.466;2022-12-20T15:23:41;24.50;;;16.27;;
66272;SDS011;58450;52.150;4.466;2022-12-20T15:26:14;23.25;;;16.35;;
66272;SDS011;58450;52.150;4.466;2022-12-20T15:28:44;22.63;;;17.45;;
66272;SDS011;58450;52.150;4.466;2022-12-20T15:31:14;21.67;;;16.17;;
66272;SDS011;58450;52.150;4.466;2022-12-20T15:33:45;22.55;;;16.77;;
66272;SDS011;58450;52.150;4.466;2022-12-20T15:36:14;25.88;;;17.52;;
66272;SDS011;58450;52.150;4.466;2022-12-20T15:38:45;25.55;;;18.25;;
66272;SDS011;58450;52.150;4.466;2022-12-20T15:41:13;26.85;;;19.33;;
66272;SDS011;58450;52.150;4.466;2022-12-20T15:43:48;24.98;;;18.98;;
66272;SDS011;58450;52.150;4.466;2022-12-20T15:46:21;24.75;;;18.88;;
66272;SDS011;58450;52.150;4.466;2022-12-20T15:48:49;24.38;;;18.65;;
66272;SDS011;58450;52.150;4.466;2022-12-20T15:51:19;24.90;;;19.40;;
66272;SDS011;58450;52.150;4.466;2022-12-20T15:53:52;27.17;;;20.40;;
66272;SDS011;58450;52.150;4.466;2022-12-20T15:56:21;27.52;;;20.88;;
66272;SDS011;58450;52.150;4.466;2022-12-20T15:58:52;26.83;;;19.48;;
66272;SDS011;58450;52.150;4.466;2022-12-20T16:01:22;26.33;;;20.40;;
66272;SDS011;58450;52.150;4.466;2022-12-20T16:03:53;25.90;;;19.42;;